Terminal Aerodrome Forecast
Issued by NWS

Home | Current Version | Previous Version | Text Only | Print | Product List | Glossary On
Versions: 1 2 3 4 5 6 7 8 9 10 11 12
000
FTUS45 KABQ 021700
TAFGUP
TAF
KGUP 021734Z 0218/0318 24010KT P6SM SCT250
      TEMPO 0221/0301 24010G19KT
     FM030100 23009KT P6SM SKC
     FM030400 VRB04KT P6SM SKC=

USA.gov is the U.S. government's official web portal to all federal, state and local government web resources and services.